Time;durP1;ratioP1;P1;durP2;ratioP2;P2;SDS_P1;SDS_P2;PMS_P1;PMS_P2;Temp;Humidity;BMP_temperature;BMP_pressure;BME280_temperature;BME280_humidity;BME280_pressure;Samples;Min_cycle;Max_cycle;Signal;HPM_P1;HPM_P2
2022/06/26 04:18:48;;;;;;;1.58;0.60;;;21.60;72.00;;;;;;4878299;24;20048;-80
2022/06/26 04:21:14;;;;;;;2.10;0.50;;;21.60;72.20;;;;;;4749883;30;20037;-79
2022/06/26 04:23:40;;;;;;;1.05;0.60;;;21.60;72.20;;;;;;4736954;30;20376;-79
2022/06/26 04:26:06;;;;;;;1.58;0.50;;;21.60;72.10;;;;;;4736730;30;20131;-78
2022/06/26 04:28:32;;;;;;;1.08;0.35;;;21.60;72.20;;;;;;4737252;30;20067;-79
2022/06/26 04:30:58;;;;;;;1.63;0.50;;;21.60;72.20;;;;;;4721379;30;20081;-80
2022/06/26 04:33:24;;;;;;;1.00;0.50;;;21.60;72.10;;;;;;4721080;30;20095;-79
2022/06/26 04:35:50;;;;;;;3.20;0.82;;;21.60;72.20;;;;;;4722448;30;20068;-79
2022/06/26 04:38:15;;;;;;;1.80;1.10;;;21.60;72.20;;;;;;4754617;30;20131;-77
2022/06/26 04:40:42;;;;;;;5.53;1.73;;;21.60;72.70;;;;;;4737688;30;20052;-78
2022/06/26 04:43:08;;;;;;;3.55;1.70;;;21.60;72.30;;;;;;4756883;30;20052;-75
2022/06/26 04:45:34;;;;;;;3.13;1.98;;;21.50;72.40;;;;;;4721667;30;20061;-76
2022/06/26 04:48:00;;;;;;;4.53;2.10;;;21.50;72.50;;;;;;4736528;30;20060;-77
2022/06/26 04:50:26;;;;;;;6.43;2.53;;;21.50;72.60;;;;;;4736628;30;20080;-77
2022/06/26 04:52:54;;;;;;;3.35;2.50;;;21.40;72.70;;;;;;4722077;30;20088;-77
2022/06/26 04:55:20;;;;;;;5.22;2.42;;;21.40;72.90;;;;;;4736479;30;20057;-78
2022/06/26 04:57:46;;;;;;;4.20;2.80;;;21.40;73.00;;;;;;4737109;30;20064;-78
2022/06/26 05:00:14;;;;;;;4.15;2.67;;;21.40;73.10;;;;;;4736496;30;20053;-78
2022/06/26 05:02:40;;;;;;;3.70;2.95;;;21.40;73.20;;;;;;4749876;30;20045;-78
2022/06/26 05:05:07;;;;;;;6.03;3.75;;;21.30;73.30;;;;;;4720688;30;20135;-78
2022/06/26 05:07:33;;;;;;;6.50;4.22;;;21.30;73.50;;;;;;4736312;30;20056;-81
2022/06/26 05:09:59;;;;;;;7.55;4.10;;;21.30;73.70;;;;;;4720815;30;20339;-78
2022/06/26 05:12:30;;;;;;;6.80;4.53;;;21.30;73.90;;;;;;4736205;30;20045;-77
2022/06/26 05:14:56;;;;;;;9.23;5.32;;;21.30;74.10;;;;;;4736186;30;20097;-78
2022/06/26 05:17:22;;;;;;;8.30;5.05;;;21.30;74.20;;;;;;4720209;30;20095;-78
2022/06/26 05:19:50;;;;;;;6.93;5.00;;;21.30;74.20;;;;;;4735131;30;20406;-78
2022/06/26 05:22:16;;;;;;;7.25;5.60;;;21.20;74.20;;;;;;4734835;30;20085;-78
2022/06/26 05:24:42;;;;;;;12.65;6.32;;;21.20;74.30;;;;;;4733056;30;20384;-78
2022/06/26 05:27:09;;;;;;;8.75;6.13;;;21.30;74.40;;;;;;4733466;30;20049;-79
2022/06/26 05:29:35;;;;;;;11.77;6.63;;;21.30;74.30;;;;;;4736813;30;20056;-80
2022/06/26 05:32:00;;;;;;;8.48;5.85;;;21.30;74.40;;;;;;4737140;30;20150;-80
2022/06/26 05:34:26;;;;;;;11.70;7.20;;;21.30;74.40;;;;;;4720785;30;20048;-82
2022/06/26 05:36:52;;;;;;;9.43;7.05;;;21.30;74.50;;;;;;4723880;30;20065;-79
2022/06/26 05:39:18;;;;;;;9.35;6.32;;;21.30;74.50;;;;;;4739175;30;20057;-80
2022/06/26 05:41:43;;;;;;;8.15;6.80;;;21.30;74.60;;;;;;4738889;30;20492;-78
2022/06/26 05:44:09;;;;;;;12.38;6.55;;;21.30;74.60;;;;;;4739113;30;20068;-79
2022/06/26 05:46:35;;;;;;;11.55;7.53;;;21.30;74.60;;;;;;4738615;30;20056;-79
2022/06/26 05:49:00;;;;;;;11.68;6.93;;;21.40;74.60;;;;;;4742544;30;20049;-79
2022/06/26 05:51:26;;;;;;;12.70;7.13;;;21.30;74.50;;;;;;4723310;30;20052;-81
2022/06/26 05:53:52;;;;;;;8.40;6.70;;;21.30;74.60;;;;;;4738766;30;20056;-78
2022/06/26 05:56:20;;;;;;;11.98;7.75;;;21.30;74.50;;;;;;4738365;30;20115;-83
2022/06/26 05:58:49;;;;;;;10.93;8.07;;;21.30;74.40;;;;;;4736377;30;20040;-83
2022/06/26 06:01:15;;;;;;;11.57;9.18;;;21.30;74.30;;;;;;4737210;30;20080;-78
2022/06/26 06:03:41;;;;;;;10.70;8.52;;;21.30;74.20;;;;;;4740315;30;20114;-78
2022/06/26 06:06:06;;;;;;;13.77;8.98;;;21.30;74.30;;;;;;4745153;30;20052;-78
2022/06/26 06:08:32;;;;;;;12.35;9.43;;;21.20;74.40;;;;;;4741904;30;20368;-78
2022/06/26 06:10:58;;;;;;;12.95;10.00;;;21.20;74.60;;;;;;4732565;30;20044;-78
2022/06/26 06:13:24;;;;;;;11.07;8.80;;;21.10;74.50;;;;;;4738213;30;20380;-78
2022/06/26 06:15:49;;;;;;;12.15;8.88;;;21.00;74.70;;;;;;4738265;30;20449;-78
2022/06/26 06:18:15;;;;;;;11.05;7.78;;;21.00;74.80;;;;;;4737972;30;20053;-78
2022/06/26 06:20:42;;;;;;;11.15;7.63;;;21.00;74.90;;;;;;4738115;30;20192;-78
2022/06/26 06:23:11;;;;;;;10.65;7.35;;;21.00;75.00;;;;;;4738146;30;20064;-78
2022/06/26 06:25:36;;;;;;;14.20;7.20;;;21.10;74.90;;;;;;4737965;30;20056;-78
2022/06/26 06:28:02;;;;;;;13.38;7.10;;;21.00;74.70;;;;;;4738155;30;20049;-77
2022/06/26 06:30:28;;;;;;;9.55;6.07;;;21.10;74.70;;;;;;4737897;30;20052;-78
2022/06/26 06:32:54;;;;;;;22.05;7.85;;;21.10;75.20;;;;;;4738601;30;20365;-77
2022/06/26 06:35:20;;;;;;;9.75;6.15;;;21.00;74.50;;;;;;4737292;30;20550;-77
2022/06/26 06:37:46;;;;;;;10.50;5.88;;;21.00;74.40;;;;;;4738220;30;20433;-78
2022/06/26 06:40:13;;;;;;;11.30;6.90;;;21.00;74.40;;;;;;4738786;30;20140;-84
2022/06/26 06:42:44;;;;;;;9.82;7.43;;;21.10;74.30;;;;;;4722537;30;20055;-82
2022/06/26 06:45:16;;;;;;;9.18;7.20;;;21.10;74.10;;;;;;4707948;30;20421;-86
2022/06/26 06:47:44;;;;;;;8.68;7.18;;;21.00;74.00;;;;;;4738706;30;20099;-80
2022/06/26 06:50:13;;;;;;;10.38;7.95;;;21.00;74.20;;;;;;4736062;30;20068;-82
2022/06/26 06:52:39;;;;;;;8.52;7.53;;;21.00;74.10;;;;;;4707574;30;20110;-85
2022/06/26 06:55:06;;;;;;;10.88;8.30;;;20.90;73.90;;;;;;4737275;30;20436;-86
2022/06/26 06:57:32;;;;;;;9.93;8.18;;;20.90;74.20;;;;;;4724822;30;20045;-82
2022/06/26 06:59:58;;;;;;;11.52;8.55;;;20.90;74.50;;;;;;4737164;30;20105;-84
2022/06/26 07:02:24;;;;;;;10.90;8.43;;;20.80;74.20;;;;;;4736488;30;20472;-83
2022/06/26 07:04:50;;;;;;;9.80;8.57;;;20.80;74.30;;;;;;4722282;30;20105;-82
2022/06/26 07:07:18;;;;;;;10.27;7.70;;;20.80;74.60;;;;;;4722570;30;20057;-82
2022/06/26 07:09:44;;;;;;;11.95;7.90;;;20.80;74.40;;;;;;4737364;30;20377;-75
2022/06/26 07:12:10;;;;;;;11.15;7.75;;;20.80;74.30;;;;;;4737676;30;20048;-76
2022/06/26 07:14:37;;;;;;;10.27;7.13;;;20.80;74.30;;;;;;4737673;30;20056;-77
2022/06/26 07:17:03;;;;;;;10.38;6.65;;;20.80;74.00;;;;;;4737990;30;20084;-72
2022/06/26 07:19:31;;;;;;;6.78;6.07;;;20.80;73.70;;;;;;4745096;30;20096;-78
2022/06/26 07:21:56;;;;;;;8.07;5.45;;;20.80;73.20;;;;;;4754993;30;20060;-77
2022/06/26 07:24:22;;;;;;;7.30;5.38;;;20.80;73.50;;;;;;4754973;30;20048;-77
2022/06/26 07:26:48;;;;;;;10.73;5.13;;;20.80;73.60;;;;;;4742845;30;20460;-76
2022/06/26 07:29:13;;;;;;;7.55;4.70;;;20.80;73.50;;;;;;4736466;30;20064;-80
2022/06/26 07:31:39;;;;;;;7.15;4.28;;;20.90;73.30;;;;;;4737437;30;20052;-77
2022/06/26 07:34:15;;;;;;;6.88;4.00;;;20.90;72.90;;;;;;4736500;30;20060;-76
2022/06/26 07:36:42;;;;;;;11.43;4.90;;;20.90;72.60;;;;;;4737003;30;20064;-76
2022/06/26 07:39:09;;;;;;;9.20;4.47;;;21.00;72.20;;;;;;4737433;30;20056;-80
2022/06/26 07:41:34;;;;;;;7.15;3.90;;;21.00;72.00;;;;;;4722018;30;20072;-79
2022/06/26 07:44:00;;;;;;;8.68;4.43;;;21.00;71.90;;;;;;4737205;30;20049;-80
2022/06/26 07:46:26;;;;;;;8.43;3.83;;;21.00;71.70;;;;;;4721825;30;20131;-77
2022/06/26 07:48:52;;;;;;;5.75;3.05;;;21.10;71.60;;;;;;4721936;30;20048;-78
2022/06/26 07:51:18;;;;;;;12.35;3.33;;;21.10;71.80;;;;;;4737005;30;20101;-74
2022/06/26 07:53:45;;;;;;;7.90;2.83;;;21.20;72.10;;;;;;4737038;30;20049;-78
2022/06/26 07:56:12;;;;;;;9.25;2.92;;;21.20;72.30;;;;;;4721733;30;20429;-77
2022/06/26 07:58:38;;;;;;;8.20;2.60;;;21.30;72.40;;;;;;4737278;30;20135;-74
2022/06/26 08:01:03;;;;;;;8.15;2.28;;;21.30;72.50;;;;;;4735954;30;20194;-77
2022/06/26 08:03:30;;;;;;;5.35;2.45;;;21.40;72.30;;;;;;4737266;30;20052;-73
2022/06/26 08:05:56;;;;;;;11.32;2.60;;;21.40;71.90;;;;;;4736987;30;20471;-74
2022/06/26 08:08:21;;;;;;;11.93;2.70;;;21.40;71.80;;;;;;4737081;30;20053;-78
2022/06/26 08:10:47;;;;;;;6.80;2.20;;;21.40;72.00;;;;;;4737066;30;20457;-79
2022/06/26 08:13:13;;;;;;;12.00;2.75;;;21.40;72.00;;;;;;4721468;30;20056;-71
2022/06/26 08:15:39;;;;;;;5.93;2.10;;;21.50;72.50;;;;;;4737004;30;20060;-75
2022/06/26 08:18:04;;;;;;;3.97;1.88;;;21.50;72.70;;;;;;4722134;30;20056;-74
2022/06/26 08:20:31;;;;;;;6.32;2.00;;;21.60;72.60;;;;;;4736245;30;20475;-75
2022/06/26 08:22:56;;;;;;;4.85;2.00;;;21.60;72.70;;;;;;4736463;30;20096;-74
2022/06/26 08:25:22;;;;;;;7.40;2.22;;;21.60;72.50;;;;;;4736830;30;20099;-75
2022/06/26 08:27:48;;;;;;;3.13;1.90;;;21.60;73.10;;;;;;4736788;30;20060;-75
2022/06/26 08:30:14;;;;;;;7.45;2.65;;;21.70;73.00;;;;;;4736734;30;20087;-78
2022/06/26 08:32:40;;;;;;;9.20;2.78;;;21.70;72.10;;;;;;4748269;30;20080;-73
2022/06/26 08:35:07;;;;;;;18.10;2.97;;;21.70;71.70;;;;;;4754279;30;20054;-75
2022/06/26 08:37:33;;;;;;;10.65;2.47;;;21.70;71.70;;;;;;4753846;30;20135;-77
2022/06/26 08:39:59;;;;;;;11.63;2.33;;;21.70;70.80;;;;;;4754575;30;20135;-76
2022/06/26 08:42:26;;;;;;;9.07;2.60;;;21.60;70.60;;;;;;4738621;30;20057;-72
2022/06/26 08:44:57;;;;;;;11.45;2.58;;;21.70;70.40;;;;;;4738695;30;20060;-77
2022/06/26 08:47:24;;;;;;;4.30;1.50;;;21.70;70.10;;;;;;4753721;30;20044;-76
2022/06/26 08:49:54;;;;;;;4.18;1.88;;;21.70;69.20;;;;;;4754015;30;20086;-75
2022/06/26 08:52:21;;;;;;;6.78;1.50;;;21.70;68.60;;;;;;4754703;30;20182;-75
2022/06/26 08:54:49;;;;;;;6.20;1.75;;;21.70;69.10;;;;;;4754239;30;20071;-74
2022/06/26 08:57:15;;;;;;;5.75;1.38;;;21.70;69.50;;;;;;4754301;30;20265;-74
2022/06/26 08:59:42;;;;;;;8.40;1.85;;;21.70;69.80;;;;;;4750332;30;20052;-75
2022/06/26 09:02:08;;;;;;;3.97;1.70;;;21.80;70.00;;;;;;4736541;30;20052;-75
2022/06/26 09:04:36;;;;;;;5.47;1.38;;;21.80;70.00;;;;;;4736363;30;20064;-75
2022/06/26 09:07:02;;;;;;;2.95;1.20;;;21.80;70.10;;;;;;4736664;30;20424;-75
2022/06/26 09:09:28;;;;;;;6.78;1.45;;;21.80;70.00;;;;;;4736532;30;20044;-76
2022/06/26 09:11:57;;;;;;;4.57;1.30;;;21.80;70.00;;;;;;4736958;30;20052;-74
2022/06/26 09:14:24;;;;;;;7.47;1.67;;;21.90;70.10;;;;;;4739774;30;20053;-75
2022/06/26 09:16:51;;;;;;;3.88;1.63;;;21.90;70.10;;;;;;4740319;30;20388;-76
2022/06/26 09:19:24;;;;;;;6.90;1.63;;;21.90;70.20;;;;;;4739386;30;20076;-75
2022/06/26 09:21:52;;;;;;;2.13;1.20;;;21.90;70.20;;;;;;4739599;30;20057;-75
2022/06/26 09:24:21;;;;;;;2.88;1.33;;;22.00;70.20;;;;;;4739858;30;20141;-75
2022/06/26 09:27:04;;;;;;;3.85;1.30;;;22.00;70.20;;;;;;4723924;30;20053;-75
2022/06/26 09:29:30;;;;;;;3.53;1.20;;;22.00;70.20;;;;;;4741434;30;20404;-75
2022/06/26 09:31:55;;;;;;;3.15;1.10;;;22.00;70.20;;;;;;4757048;30;20072;-76
2022/06/26 09:34:24;;;;;;;4.00;1.20;;;22.00;70.20;;;;;;4756502;30;20118;-75
2022/06/26 09:37:02;;;;;;;2.13;1.00;;;22.00;70.20;;;;;;4741542;30;20060;-75
2022/06/26 09:39:30;;;;;;;2.67;1.15;;;22.00;70.20;;;;;;4757546;30;20056;-75
2022/06/26 09:41:56;;;;;;;3.20;0.95;;;22.00;70.20;;;;;;4756859;30;20143;-74
2022/06/26 09:44:22;;;;;;;3.75;1.17;;;22.00;70.10;;;;;;4756891;30;20048;-75
2022/06/26 09:46:49;;;;;;;4.22;1.10;;;22.10;70.20;;;;;;4756669;30;20438;-75
2022/06/26 09:49:16;;;;;;;5.32;1.35;;;22.10;70.10;;;;;;4756910;30;20060;-74
2022/06/26 09:51:43;;;;;;;2.25;1.27;;;22.10;70.10;;;;;;4756869;30;20388;-75
2022/06/26 09:54:09;;;;;;;2.67;1.05;;;22.10;70.10;;;;;;4757132;30;20056;-75
2022/06/26 09:56:35;;;;;;;5.80;1.30;;;22.10;70.10;;;;;;4756687;30;20360;-75
2022/06/26 09:59:00;;;;;;;2.75;1.08;;;22.10;70.10;;;;;;4741033;30;20144;-74
2022/06/26 10:07:01;;;;;;;3.25;1.40;;;22.10;70.00;;;;;;4757036;30;20052;-75
2022/06/26 10:09:28;;;;;;;2.63;0.93;;;22.10;70.00;;;;;;4756678;30;20145;-75
2022/06/26 10:11:57;;;;;;;2.20;1.00;;;22.10;70.00;;;;;;4740746;30;20052;-74
2022/06/26 10:14:28;;;;;;;1.92;0.95;;;22.20;70.00;;;;;;4756612;30;20118;-76
2022/06/26 10:17:21;;;;;;;2.88;1.23;;;22.20;70.00;;;;;;4741477;30;20060;-75
2022/06/26 10:19:55;;;;;;;2.33;1.10;;;22.10;69.90;;;;;;4723196;30;20060;-76
2022/06/26 10:22:21;;;;;;;4.07;0.88;;;22.20;70.00;;;;;;4738520;30;20381;-74
2022/06/26 10:24:58;;;;;;;3.00;1.27;;;22.20;70.00;;;;;;4738598;30;20048;-75
2022/06/26 10:27:24;;;;;;;2.28;1.23;;;22.20;69.90;;;;;;4739221;30;20362;-74
2022/06/26 10:29:50;;;;;;;2.05;1.00;;;22.20;69.90;;;;;;4738452;30;20067;-75
2022/06/26 10:32:22;;;;;;;2.85;1.00;;;22.20;69.90;;;;;;4728061;30;20061;-75
2022/06/26 10:34:56;;;;;;;2.75;1.27;;;22.20;69.90;;;;;;4720848;30;20041;-75
2022/06/26 10:37:21;;;;;;;2.75;0.90;;;22.20;69.80;;;;;;4721718;30;20069;-75
2022/06/26 10:39:49;;;;;;;1.98;0.88;;;22.20;69.90;;;;;;4720163;30;20063;-75
2022/06/26 10:45:05;;;;;;;1.80;0.93;;;22.20;69.90;;;;;;4720442;30;20057;-75
2022/06/26 10:47:42;;;;;;;2.00;0.93;;;22.20;69.80;;;;;;4719917;30;20092;-76
2022/06/26 10:50:41;;;;;;;3.42;1.10;;;22.20;69.80;;;;;;4721399;30;20431;-74
2022/06/26 10:53:24;;;;;;;1.48;0.90;;;22.30;69.80;;;;;;4720357;30;20057;-75
2022/06/26 10:55:55;;;;;;;1.70;1.13;;;22.30;70.40;;;;;;4720013;30;20365;-75
2022/06/26 10:58:26;;;;;;;3.05;1.20;;;22.20;69.70;;;;;;4720491;30;20060;-76
2022/06/26 11:00:55;;;;;;;1.80;1.08;;;22.20;69.70;;;;;;4723666;30;20408;-75
2022/06/26 11:03:22;;;;;;;2.65;1.48;;;22.20;69.70;;;;;;4720380;30;20133;-74
2022/06/26 11:05:55;;;;;;;2.25;1.05;;;22.20;69.70;;;;;;4720772;30;20056;-74
2022/06/26 11:08:26;;;;;;;1.67;0.82;;;22.30;69.70;;;;;;4720424;30;20057;-75
2022/06/26 11:10:53;;;;;;;1.85;1.30;;;22.20;69.60;;;;;;4720201;30;20480;-75
2022/06/26 11:13:18;;;;;;;3.40;0.93;;;22.30;69.70;;;;;;4719699;30;20131;-76
2022/06/26 11:15:44;;;;;;;1.40;0.90;;;22.30;69.70;;;;;;4720960;30;20053;-76
2022/06/26 11:18:10;;;;;;;2.85;1.05;;;22.30;69.60;;;;;;4720363;30;20385;-74
2022/06/26 11:20:50;;;;;;;2.10;1.20;;;22.30;69.60;;;;;;4734096;30;20366;-75
2022/06/26 11:23:22;;;;;;;2.22;1.17;;;22.30;69.60;;;;;;4737716;30;20057;-75
2022/06/26 11:25:53;;;;;;;1.52;1.17;;;22.30;69.60;;;;;;4737696;30;20114;-74
2022/06/26 11:28:19;;;;;;;1.85;1.35;;;22.30;69.60;;;;;;4737951;30;20056;-75
2022/06/26 11:30:46;;;;;;;2.00;1.20;;;22.30;69.60;;;;;;4736700;30;20057;-75
2022/06/26 11:33:12;;;;;;;1.75;1.23;;;22.30;69.50;;;;;;4721795;30;20060;-75
2022/06/26 11:35:38;;;;;;;1.38;0.90;;;22.30;69.60;;;;;;4736857;30;20541;-74
2022/06/26 11:38:15;;;;;;;1.52;0.98;;;22.30;69.50;;;;;;4737306;30;20052;-74
2022/06/26 11:40:43;;;;;;;2.15;1.15;;;22.30;69.40;;;;;;4737617;30;20127;-75
2022/06/26 11:43:10;;;;;;;1.10;1.00;;;22.30;69.50;;;;;;4736979;30;20056;-76
2022/06/26 11:45:37;;;;;;;1.48;1.35;;;22.30;69.50;;;;;;4737877;30;20060;-76
2022/06/26 11:48:12;;;;;;;2.53;1.33;;;22.30;69.40;;;;;;4737182;30;20049;-75
2022/06/26 11:50:38;;;;;;;1.67;1.10;;;22.30;69.40;;;;;;4737940;30;20505;-75
2022/06/26 11:53:05;;;;;;;2.25;1.25;;;22.30;69.40;;;;;;4737728;30;20075;-75
2022/06/26 11:55:33;;;;;;;2.95;1.10;;;22.40;69.30;;;;;;4721600;30;20103;-74
2022/06/26 11:58:02;;;;;;;1.63;1.20;;;22.30;69.30;;;;;;4736958;30;20064;-75
2022/06/26 12:00:28;;;;;;;2.08;1.40;;;22.30;69.20;;;;;;4736652;30;20457;-75
2022/06/26 12:02:54;;;;;;;2.90;1.63;;;22.30;69.20;;;;;;4736060;30;20474;-75
2022/06/26 12:05:27;;;;;;;2.35;1.67;;;22.30;69.20;;;;;;4737009;30;20082;-75
2022/06/26 12:07:54;;;;;;;2.17;1.55;;;22.40;69.30;;;;;;4737017;30;20500;-75
2022/06/26 12:10:36;;;;;;;2.35;1.58;;;22.30;69.30;;;;;;4721345;30;20056;-74
2022/06/26 12:13:03;;;;;;;2.53;1.95;;;22.40;69.20;;;;;;4721599;30;20060;-75
2022/06/26 12:15:34;;;;;;;3.28;1.83;;;22.40;69.20;;;;;;4736812;30;20457;-74
2022/06/26 12:18:02;;;;;;;2.75;1.70;;;22.40;69.10;;;;;;4737585;30;20467;-75
2022/06/26 12:20:35;;;;;;;2.80;1.67;;;22.30;69.10;;;;;;4721210;30;20067;-75
2022/06/26 12:23:02;;;;;;;2.03;1.75;;;22.40;69.10;;;;;;4736790;30;20067;-75
2022/06/26 12:25:35;;;;;;;2.33;1.70;;;22.30;69.10;;;;;;4737004;30;20057;-75
2022/06/26 12:28:02;;;;;;;2.60;1.98;;;22.40;69.20;;;;;;4721386;30;20064;-76
2022/06/26 12:30:30;;;;;;;1.70;1.25;;;22.30;69.10;;;;;;4736873;30;20060;-75
2022/06/26 12:32:57;;;;;;;1.45;1.23;;;22.30;69.10;;;;;;4750750;30;20488;-75
2022/06/26 12:35:25;;;;;;;2.10;1.70;;;22.40;69.20;;;;;;4754143;30;20060;-75
2022/06/26 12:37:51;;;;;;;1.58;1.45;;;22.40;69.20;;;;;;4754401;30;20070;-75
2022/06/26 12:40:17;;;;;;;4.00;1.90;;;22.40;69.20;;;;;;4754892;30;20139;-75
2022/06/26 12:42:43;;;;;;;2.38;1.60;;;22.40;69.20;;;;;;4754306;30;20048;-75
2022/06/26 12:45:09;;;;;;;2.20;1.50;;;22.30;69.10;;;;;;4753889;30;20056;-80
2022/06/26 12:47:36;;;;;;;3.20;1.75;;;22.40;69.20;;;;;;4757259;30;20059;-74
2022/06/26 12:50:03;;;;;;;9.57;2.05;;;22.40;69.00;;;;;;4758208;30;20078;-78
2022/06/26 12:52:29;;;;;;;7.30;1.98;;;22.40;69.00;;;;;;4757623;30;20461;-80
2022/06/26 12:54:54;;;;;;;4.95;2.38;;;22.30;69.00;;;;;;4757539;30;20056;-76
2022/06/26 12:57:20;;;;;;;4.57;2.10;;;22.30;68.30;;;;;;4742237;30;20068;-79
2022/06/26 12:59:46;;;;;;;5.25;2.00;;;22.30;68.20;;;;;;4732258;30;20044;-80
2022/06/26 13:02:12;;;;;;;3.78;1.75;;;22.40;68.40;;;;;;4724575;30;20064;-78
2022/06/26 13:04:38;;;;;;;6.38;2.33;;;22.40;68.40;;;;;;4739762;30;20096;-77
2022/06/26 13:07:04;;;;;;;7.18;2.35;;;22.30;68.50;;;;;;4739736;30;20060;-78
2022/06/26 13:09:29;;;;;;;9.93;2.17;;;22.30;68.80;;;;;;4724303;30;20052;-76
2022/06/26 13:11:55;;;;;;;7.93;2.03;;;22.40;69.10;;;;;;4739725;30;20147;-74
2022/06/26 13:14:21;;;;;;;11.88;2.40;;;22.40;69.20;;;;;;4740501;30;20052;-74
2022/06/26 13:16:47;;;;;;;12.02;2.30;;;22.40;69.40;;;;;;4740012;30;20418;-74
2022/06/26 13:19:12;;;;;;;8.52;2.20;;;22.40;69.60;;;;;;4739512;30;20052;-74
2022/06/26 13:21:39;;;;;;;6.93;2.13;;;22.40;69.70;;;;;;4739794;30;20353;-74
2022/06/26 13:24:05;;;;;;;10.57;2.17;;;22.50;66.10;;;;;;4739274;30;20485;-82
2022/06/26 13:26:31;;;;;;;11.85;2.58;;;22.40;65.70;;;;;;4739251;30;20048;-83
2022/06/26 13:28:58;;;;;;;10.75;2.08;;;22.40;65.50;;;;;;4726704;30;20047;-82
2022/06/26 13:31:25;;;;;;;6.00;1.70;;;22.40;65.40;;;;;;4714826;30;20044;-80
2022/06/26 13:34:24;;;;;;;7.93;1.85;;;22.30;64.40;;;;;;4756861;30;20059;-82
2022/06/26 13:36:59;;;;;;;7.03;1.60;;;22.40;64.40;;;;;;4769794;30;20044;-83
2022/06/26 13:39:25;;;;;;;5.15;1.42;;;22.30;63.80;;;;;;4727615;30;20142;-81
2022/06/26 13:41:56;;;;;;;9.68;1.83;;;22.30;63.80;;;;;;4770424;30;20609;-82
2022/06/26 13:44:22;;;;;;;5.22;1.25;;;22.30;63.90;;;;;;4756918;30;20048;-87
2022/06/26 13:47:00;;;;;;;5.88;2.72;;;22.30;62.10;;;;;;4755690;30;20380;-84
2022/06/26 13:49:26;;;;;;;2.20;1.00;;;22.30;61.60;;;;;;4753882;30;20036;-86
2022/06/26 13:51:53;;;;;;;3.63;1.25;;;22.30;60.10;;;;;;4712414;30;20056;-85
2022/06/26 13:54:18;;;;;;;4.53;1.65;;;22.30;59.50;;;;;;4708781;30;20045;-82
2022/06/26 13:56:44;;;;;;;3.70;1.83;;;22.30;59.90;;;;;;4723448;30;20376;-83
2022/06/26 13:59:10;;;;;;;5.18;2.30;;;22.20;60.50;;;;;;4737967;30;20469;-73
2022/06/26 14:01:36;;;;;;;6.47;2.30;;;22.20;61.40;;;;;;4745080;30;20040;-80
2022/06/26 14:04:02;;;;;;;6.03;2.20;;;22.20;61.60;;;;;;4756084;30;20399;-78
2022/06/26 14:06:27;;;;;;;5.05;1.95;;;22.30;62.10;;;;;;4756330;30;20048;-80
2022/06/26 14:08:54;;;;;;;5.75;2.13;;;22.30;62.40;;;;;;4756413;30;20059;-79
2022/06/26 14:11:21;;;;;;;6.72;1.63;;;22.30;62.70;;;;;;4740995;30;20052;-79
2022/06/26 14:13:47;;;;;;;9.95;2.28;;;22.40;63.40;;;;;;4756109;30;20436;-81
2022/06/26 14:16:12;;;;;;;6.47;1.63;;;22.40;63.70;;;;;;4756425;30;20047;-76
2022/06/26 14:18:38;;;;;;;6.68;1.25;;;22.40;63.90;;;;;;4741307;30;20145;-80
2022/06/26 14:21:04;;;;;;;4.85;1.30;;;22.40;64.00;;;;;;4740064;30;20061;-78
2022/06/26 14:26:18;;;;;;;4.28;1.73;;;22.40;63.60;;;;;;4755977;30;20060;-77
2022/06/26 14:28:44;;;;;;;4.78;1.67;;;22.40;63.50;;;;;;4756396;30;20134;-80
2022/06/26 14:31:10;;;;;;;2.85;1.60;;;22.40;63.50;;;;;;4723447;30;20048;-77
2022/06/26 14:33:36;;;;;;;4.35;1.80;;;22.40;63.40;;;;;;4738259;30;20064;-79
2022/06/26 14:36:12;;;;;;;6.15;1.70;;;22.40;63.50;;;;;;4722695;30;20056;-83
2022/06/26 14:38:37;;;;;;;5.22;1.40;;;22.40;63.90;;;;;;4738263;30;20052;-85
2022/06/26 14:41:06;;;;;;;3.78;1.40;;;22.40;63.90;;;;;;4708480;30;20048;-85
2022/06/26 14:43:38;;;;;;;5.25;1.50;;;22.40;63.40;;;;;;4708455;30;20052;-85
2022/06/26 14:46:42;;;;;;;10.90;1.83;;;22.40;63.30;;;;;;4722853;30;20059;-84
2022/06/26 14:49:29;;;;;;;8.20;2.38;;;22.40;63.60;;;;;;4684008;30;20089;-81
2022/06/26 14:51:55;;;;;;;3.72;1.83;;;22.40;64.20;;;;;;4683881;30;20049;-80
2022/06/26 14:54:20;;;;;;;3.47;2.10;;;22.40;63.90;;;;;;4669893;30;20140;-84
2022/06/26 14:57:04;;;;;;;7.25;2.10;;;22.40;63.80;;;;;;4669898;30;20390;-86
2022/06/26 14:59:57;;;;;;;2.92;1.92;;;22.40;63.80;;;;;;4682526;30;20382;-87
2022/06/26 15:02:32;;;;;;;4.10;1.55;;;22.40;63.90;;;;;;4748651;30;20044;-86
2022/06/26 15:05:10;;;;;;;11.65;2.92;;;22.40;63.40;;;;;;4725245;30;20056;-88
2022/06/26 15:08:17;;;;;;;5.28;2.03;;;22.40;64.20;;;;;;4736842;30;20065;-87
2022/06/26 15:15:29;;;;;;;8.15;1.50;;;22.40;64.40;;;;;;4754180;30;20060;-86
2022/06/26 15:17:55;;;;;;;6.68;1.60;;;22.50;63.00;;;;;;4754640;30;20112;-81
2022/06/26 15:20:32;;;;;;;8.13;1.73;;;22.40;62.10;;;;;;4739355;30;20052;-85
2022/06/26 15:23:39;;;;;;;4.68;1.10;;;22.30;61.90;;;;;;4739562;30;20083;-85
2022/06/26 15:37:17;;;;;;;7.85;1.90;;;22.30;61.20;;;;;;4717768;30;20055;-85
2022/06/26 15:39:43;;;;;;;5.50;1.63;;;22.30;61.30;;;;;;4703663;30;20071;-86
2022/06/26 15:42:12;;;;;;;7.63;1.60;;;22.30;61.40;;;;;;4704229;30;20136;-86
2022/06/26 15:44:44;;;;;;;7.60;2.33;;;22.30;61.40;;;;;;4718822;30;20049;-79
2022/06/26 15:47:10;;;;;;;7.35;2.40;;;22.30;61.70;;;;;;4703885;30;20520;-78
2022/06/26 15:49:36;;;;;;;5.18;2.30;;;22.30;61.60;;;;;;4718554;30;20061;-80
2022/06/26 15:52:02;;;;;;;8.35;1.90;;;22.30;62.00;;;;;;4718566;30;20056;-80
2022/06/26 15:54:28;;;;;;;6.25;1.80;;;22.30;62.60;;;;;;4719974;30;20049;-75
2022/06/26 15:56:53;;;;;;;9.50;2.45;;;22.30;62.90;;;;;;4725199;30;20052;-76
2022/06/26 15:59:19;;;;;;;10.20;2.05;;;22.40;63.30;;;;;;4736846;30;20558;-76
2022/06/26 16:01:45;;;;;;;6.03;2.15;;;22.40;63.50;;;;;;4723061;30;20411;-76
2022/06/26 16:04:11;;;;;;;7.70;1.95;;;22.40;63.40;;;;;;4736715;30;20056;-75
2022/06/26 16:06:36;;;;;;;8.93;2.40;;;22.40;63.60;;;;;;4736452;30;20052;-75
2022/06/26 16:09:03;;;;;;;5.80;2.13;;;22.40;63.70;;;;;;4736860;30;20052;-74
2022/06/26 16:11:29;;;;;;;8.70;1.98;;;22.40;63.80;;;;;;4721716;30;20071;-75
2022/06/26 16:13:55;;;;;;;6.68;1.90;;;22.40;63.90;;;;;;4736751;30;20130;-74
2022/06/26 16:16:21;;;;;;;3.92;1.92;;;22.40;63.40;;;;;;4737353;30;20527;-77
2022/06/26 16:18:47;;;;;;;4.70;2.15;;;22.40;62.40;;;;;;4721230;30;20346;-77
2022/06/26 16:21:12;;;;;;;7.72;1.92;;;22.40;60.80;;;;;;4736161;30;20130;-75
2022/06/26 16:26:24;;;;;;;6.38;2.15;;;22.30;61.00;;;;;;4736436;30;20056;-75
2022/06/26 16:28:55;;;;;;;4.40;2.08;;;22.30;61.20;;;;;;4736869;30;20135;-75
2022/06/26 16:31:23;;;;;;;3.90;1.98;;;22.20;61.30;;;;;;4744025;30;20080;-75
2022/06/26 16:33:49;;;;;;;4.93;1.63;;;22.30;61.60;;;;;;4739055;30;20063;-75
2022/06/26 16:36:16;;;;;;;6.95;1.90;;;22.30;61.80;;;;;;4754406;30;20129;-75
2022/06/26 16:38:42;;;;;;;6.35;2.17;;;22.30;62.10;;;;;;4754341;30;20110;-73
2022/06/26 16:41:08;;;;;;;11.38;2.10;;;22.30;62.30;;;;;;4738945;30;20088;-76
2022/06/26 16:43:34;;;;;;;7.50;1.95;;;22.30;62.80;;;;;;4754232;30;20158;-76
2022/06/26 16:45:59;;;;;;;19.05;2.58;;;22.30;62.90;;;;;;4738897;30;20139;-75
2022/06/26 16:48:26;;;;;;;10.27;2.35;;;22.40;63.40;;;;;;4738516;30;20052;-77
2022/06/26 16:50:53;;;;;;;10.43;2.20;;;22.40;63.70;;;;;;4754128;30;20044;-77
2022/06/26 16:53:19;;;;;;;9.13;2.58;;;22.40;63.70;;;;;;4738577;30;20098;-77
2022/06/26 16:55:45;;;;;;;7.72;2.22;;;22.40;63.60;;;;;;4753927;30;20484;-77
2022/06/26 16:58:10;;;;;;;6.95;2.22;;;22.40;63.50;;;;;;4754112;30;20066;-76
2022/06/26 17:00:36;;;;;;;6.45;2.10;;;22.40;63.50;;;;;;4752689;30;20044;-77
2022/06/26 17:03:02;;;;;;;6.70;2.10;;;22.40;63.50;;;;;;4721077;30;20045;-77
2022/06/26 17:05:29;;;;;;;9.45;2.55;;;22.40;63.50;;;;;;4736662;30;20113;-76
2022/06/26 17:07:55;;;;;;;4.88;2.10;;;22.50;63.70;;;;;;4736539;30;20064;-77
2022/06/26 17:10:21;;;;;;;8.15;2.20;;;22.50;63.70;;;;;;4736768;30;20061;-78
2022/06/26 17:12:47;;;;;;;8.07;2.05;;;22.50;63.80;;;;;;4736378;30;20060;-77
2022/06/26 17:15:13;;;;;;;6.15;2.20;;;22.40;63.80;;;;;;4736372;30;20056;-76
2022/06/26 17:17:39;;;;;;;5.93;2.17;;;22.50;63.90;;;;;;4736398;30;20048;-77
2022/06/26 17:20:06;;;;;;;4.88;2.13;;;22.50;63.90;;;;;;4720729;30;20067;-78
2022/06/26 17:22:32;;;;;;;6.60;2.08;;;22.50;63.90;;;;;;4736329;30;20365;-78
2022/06/26 17:24:58;;;;;;;18.35;2.30;;;22.50;64.00;;;;;;4736242;30;20057;-78
2022/06/26 17:27:24;;;;;;;7.38;1.98;;;22.50;64.00;;;;;;4720868;30;20380;-77
2022/06/26 17:29:50;;;;;;;7.03;2.13;;;22.50;64.00;;;;;;4736325;30;20056;-76
2022/06/26 17:32:16;;;;;;;3.55;1.63;;;22.50;64.10;;;;;;4751992;30;20052;-76
2022/06/26 17:34:42;;;;;;;4.68;1.80;;;22.50;64.10;;;;;;4756636;30;20052;-77
2022/06/26 17:37:07;;;;;;;6.63;2.13;;;22.50;64.10;;;;;;4757019;30;20051;-76